<?xml version="1.0" encoding="UTF-8" standalone="no" ?>
<gpx xmlns="http://www.topografix.com/GPX/1/1" xmlns:xsi="http://www.w3.org/2001/XMLSchema-instance" xsi:schemaLocation="http://www.topografix.com/GPX/1/1 http://www.topografix.com/GPX/1/1/gpx.xsd" version="1.1" creator="VisuGPX - https://www.visugpx.com">
  <metadata>
    <name>Vassieux1</name>
  </metadata>
  <trk>
    <name><![CDATA[Randonnée du 10/06/2022 à 08:07]]></name>
    <trkseg>
      <trkpt lat="44.87481" lon="5.40453">
        <ele>1181</ele>
        <time>2022-06-10T08:07:46+02:00</time>
      </trkpt>
      <trkpt lat="44.87441" lon="5.40344">
        <ele>1181</ele>
        <time>2022-06-10T08:09:25+02:00</time>
      </trkpt>
      <trkpt lat="44.87468" lon="5.40277">
        <ele>1175</ele>
        <time>2022-06-10T08:10:27+02:00</time>
      </trkpt>
      <trkpt lat="44.87473" lon="5.40176">
        <ele>1167</ele>
        <time>2022-06-10T08:11:49+02:00</time>
      </trkpt>
      <trkpt lat="44.87462" lon="5.40072">
        <ele>1159</ele>
        <time>2022-06-10T08:13:15+02:00</time>
      </trkpt>
      <trkpt lat="44.87478" lon="5.39997">
        <ele>1155</ele>
        <time>2022-06-10T08:14:18+02:00</time>
      </trkpt>
      <trkpt lat="44.8751" lon="5.39971">
        <ele>1149</ele>
        <time>2022-06-10T08:15:00+02:00</time>
      </trkpt>
      <trkpt lat="44.8755" lon="5.40004">
        <ele>1151</ele>
        <time>2022-06-10T08:16:14+02:00</time>
      </trkpt>
      <trkpt lat="44.87515" lon="5.39903">
        <ele>1146</ele>
        <time>2022-06-10T08:17:45+02:00</time>
      </trkpt>
      <trkpt lat="44.87531" lon="5.3984">
        <ele>1145</ele>
        <time>2022-06-10T08:18:40+02:00</time>
      </trkpt>
      <trkpt lat="44.87568" lon="5.3978">
        <ele>1132</ele>
        <time>2022-06-10T08:19:44+02:00</time>
      </trkpt>
      <trkpt lat="44.87494" lon="5.39668">
        <ele>1139</ele>
        <time>2022-06-10T08:23:01+02:00</time>
      </trkpt>
      <trkpt lat="44.87428" lon="5.39518">
        <ele>1131</ele>
        <time>2022-06-10T08:25:24+02:00</time>
      </trkpt>
      <trkpt lat="44.8738" lon="5.3944">
        <ele>1127</ele>
        <time>2022-06-10T08:26:48+02:00</time>
      </trkpt>
      <trkpt lat="44.87332" lon="5.39328">
        <ele>1114</ele>
        <time>2022-06-10T08:28:34+02:00</time>
      </trkpt>
      <trkpt lat="44.87221" lon="5.39204">
        <ele>1107</ele>
        <time>2022-06-10T08:31:16+02:00</time>
      </trkpt>
      <trkpt lat="44.87168" lon="5.39096">
        <ele>1097</ele>
        <time>2022-06-10T08:33:03+02:00</time>
      </trkpt>
      <trkpt lat="44.87136" lon="5.38995">
        <ele>1094</ele>
        <time>2022-06-10T08:34:33+02:00</time>
      </trkpt>
      <trkpt lat="44.87163" lon="5.38823">
        <ele>1095</ele>
        <time>2022-06-10T08:37:06+02:00</time>
      </trkpt>
      <trkpt lat="44.86909" lon="5.38715">
        <ele>1100</ele>
        <time>2022-06-10T08:43:02+02:00</time>
      </trkpt>
      <trkpt lat="44.86702" lon="5.38621">
        <ele>1109</ele>
        <time>2022-06-10T08:48:43+02:00</time>
      </trkpt>
      <trkpt lat="44.86516" lon="5.38543">
        <ele>1114</ele>
        <time>2022-06-10T08:53:16+02:00</time>
      </trkpt>
      <trkpt lat="44.86336" lon="5.38431">
        <ele>1127</ele>
        <time>2022-06-10T08:59:15+02:00</time>
      </trkpt>
      <trkpt lat="44.86387" lon="5.3824">
        <ele>1125</ele>
        <time>2022-06-10T09:02:00+02:00</time>
      </trkpt>
      <trkpt lat="44.86368" lon="5.38188">
        <ele>1128</ele>
        <time>2022-06-10T09:03:18+02:00</time>
      </trkpt>
      <trkpt lat="44.86429" lon="5.38012">
        <ele>1132</ele>
        <time>2022-06-10T09:06:38+02:00</time>
      </trkpt>
      <trkpt lat="44.86453" lon="5.37952">
        <ele>1133</ele>
        <time>2022-06-10T09:07:44+02:00</time>
      </trkpt>
      <trkpt lat="44.86339" lon="5.37859">
        <ele>1138</ele>
        <time>2022-06-10T09:11:06+02:00</time>
      </trkpt>
      <trkpt lat="44.86395" lon="5.37806">
        <ele>1134</ele>
        <time>2022-06-10T09:12:23+02:00</time>
      </trkpt>
      <trkpt lat="44.86437" lon="5.37593">
        <ele>1141</ele>
        <time>2022-06-10T09:16:35+02:00</time>
      </trkpt>
      <trkpt lat="44.86458" lon="5.37425">
        <ele>1144</ele>
        <time>2022-06-10T09:19:24+02:00</time>
      </trkpt>
      <trkpt lat="44.86344" lon="5.37219">
        <ele>1153</ele>
        <time>2022-06-10T09:24:28+02:00</time>
      </trkpt>
      <trkpt lat="44.86029" lon="5.36984">
        <ele>1178</ele>
        <time>2022-06-10T09:35:34+02:00</time>
      </trkpt>
      <trkpt lat="44.85947" lon="5.36842">
        <ele>1194</ele>
        <time>2022-06-10T09:40:47+02:00</time>
      </trkpt>
      <trkpt lat="44.85867" lon="5.3667">
        <ele>1208</ele>
        <time>2022-06-10T09:45:58+02:00</time>
      </trkpt>
      <trkpt lat="44.8583" lon="5.36554">
        <ele>1215</ele>
        <time>2022-06-10T09:48:53+02:00</time>
      </trkpt>
      <trkpt lat="44.85751" lon="5.36378">
        <ele>1221</ele>
        <time>2022-06-10T09:52:44+02:00</time>
      </trkpt>
      <trkpt lat="44.85735" lon="5.3627">
        <ele>1224</ele>
        <time>2022-06-10T09:54:45+02:00</time>
      </trkpt>
      <trkpt lat="44.85716" lon="5.36128">
        <ele>1229</ele>
        <time>2022-06-10T09:57:34+02:00</time>
      </trkpt>
      <trkpt lat="44.85727" lon="5.36035">
        <ele>1234</ele>
        <time>2022-06-10T09:59:42+02:00</time>
      </trkpt>
      <trkpt lat="44.85791" lon="5.35829">
        <ele>1248</ele>
        <time>2022-06-10T10:05:08+02:00</time>
      </trkpt>
      <trkpt lat="44.85793" lon="5.35687">
        <ele>1250</ele>
        <time>2022-06-10T10:07:24+02:00</time>
      </trkpt>
      <trkpt lat="44.85825" lon="5.35631">
        <ele>1250</ele>
        <time>2022-06-10T10:08:22+02:00</time>
      </trkpt>
      <trkpt lat="44.85881" lon="5.35575">
        <ele>1249</ele>
        <time>2022-06-10T10:09:40+02:00</time>
      </trkpt>
      <trkpt lat="44.85902" lon="5.3547">
        <ele>1251</ele>
        <time>2022-06-10T10:11:29+02:00</time>
      </trkpt>
      <trkpt lat="44.85889" lon="5.35373">
        <ele>1258</ele>
        <time>2022-06-10T10:14:01+02:00</time>
      </trkpt>
      <trkpt lat="44.8587" lon="5.35268">
        <ele>1265</ele>
        <time>2022-06-10T10:16:41+02:00</time>
      </trkpt>
      <trkpt lat="44.85883" lon="5.35145">
        <ele>1272</ele>
        <time>2022-06-10T10:19:34+02:00</time>
      </trkpt>
      <trkpt lat="44.85931" lon="5.35051">
        <ele>1276</ele>
        <time>2022-06-10T10:21:49+02:00</time>
      </trkpt>
      <trkpt lat="44.85971" lon="5.34969">
        <ele>1281</ele>
        <time>2022-06-10T10:24:01+02:00</time>
      </trkpt>
      <trkpt lat="44.8605" lon="5.34872">
        <ele>1294</ele>
        <time>2022-06-10T10:28:15+02:00</time>
      </trkpt>
      <trkpt lat="44.8595" lon="5.34794">
        <ele>1303</ele>
        <time>2022-06-10T10:31:59+02:00</time>
      </trkpt>
      <trkpt lat="44.8578" lon="5.34663">
        <ele>1326</ele>
        <time>2022-06-10T10:39:37+02:00</time>
      </trkpt>
      <trkpt lat="44.85719" lon="5.34592">
        <ele>1335</ele>
        <time>2022-06-10T10:42:40+02:00</time>
      </trkpt>
      <trkpt lat="44.85613" lon="5.3448">
        <ele>1349</ele>
        <time>2022-06-10T10:47:36+02:00</time>
      </trkpt>
      <trkpt lat="44.85541" lon="5.34405">
        <ele>1356</ele>
        <time>2022-06-10T10:50:30+02:00</time>
      </trkpt>
      <trkpt lat="44.85457" lon="5.34405">
        <ele>1354</ele>
        <time>2022-06-10T10:52:07+02:00</time>
      </trkpt>
      <trkpt lat="44.85375" lon="5.34345">
        <ele>1367</ele>
        <time>2022-06-10T10:56:07+02:00</time>
      </trkpt>
      <trkpt lat="44.85266" lon="5.34282">
        <ele>1383</ele>
        <time>2022-06-10T11:01:06+02:00</time>
      </trkpt>
      <trkpt lat="44.85168" lon="5.34174">
        <ele>1401</ele>
        <time>2022-06-10T11:06:34+02:00</time>
      </trkpt>
      <trkpt lat="44.85088" lon="5.3411">
        <ele>1413</ele>
        <time>2022-06-10T11:10:22+02:00</time>
      </trkpt>
      <trkpt lat="44.85017" lon="5.34054">
        <ele>1416</ele>
        <time>2022-06-10T11:12:27+02:00</time>
      </trkpt>
      <trkpt lat="44.84961" lon="5.33931">
        <ele>1429</ele>
        <time>2022-06-10T11:16:39+02:00</time>
      </trkpt>
      <trkpt lat="44.84906" lon="5.33833">
        <ele>1439</ele>
        <time>2022-06-10T11:20:03+02:00</time>
      </trkpt>
      <trkpt lat="44.84808" lon="5.33717">
        <ele>1441</ele>
        <time>2022-06-10T11:22:50+02:00</time>
      </trkpt>
      <trkpt lat="44.84741" lon="5.33579">
        <ele>1443</ele>
        <time>2022-06-10T11:25:26+02:00</time>
      </trkpt>
      <trkpt lat="44.84704" lon="5.33497">
        <ele>1436</ele>
        <time>2022-06-10T11:26:45+02:00</time>
      </trkpt>
      <trkpt lat="44.84609" lon="5.33504">
        <ele>1452</ele>
        <time>2022-06-10T11:31:19+02:00</time>
      </trkpt>
      <trkpt lat="44.84566" lon="5.33493">
        <ele>1463</ele>
        <time>2022-06-10T11:34:02+02:00</time>
      </trkpt>
      <trkpt lat="44.84495" lon="5.3359">
        <ele>1466</ele>
        <time>2022-06-10T11:36:27+02:00</time>
      </trkpt>
      <trkpt lat="44.84384" lon="5.33546">
        <ele>1483</ele>
        <time>2022-06-10T11:41:34+02:00</time>
      </trkpt>
      <trkpt lat="44.84299" lon="5.33549">
        <ele>1493</ele>
        <time>2022-06-10T11:44:54+02:00</time>
      </trkpt>
      <trkpt lat="44.84201" lon="5.3356">
        <ele>1505</ele>
        <time>2022-06-10T11:48:50+02:00</time>
      </trkpt>
      <trkpt lat="44.84039" lon="5.3343">
        <ele>1547</ele>
        <time>2022-06-10T11:59:35+02:00</time>
      </trkpt>
      <trkpt lat="44.83986" lon="5.33456">
        <ele>1554</ele>
        <time>2022-06-10T12:01:51+02:00</time>
      </trkpt>
      <trkpt lat="44.83896" lon="5.33415">
        <ele>1549</ele>
        <time>2022-06-10T12:03:39+02:00</time>
      </trkpt>
      <trkpt lat="44.83808" lon="5.33377">
        <ele>1540</ele>
        <time>2022-06-10T12:05:24+02:00</time>
      </trkpt>
      <trkpt lat="44.83676" lon="5.33325">
        <ele>1546</ele>
        <time>2022-06-10T12:09:03+02:00</time>
      </trkpt>
      <trkpt lat="44.83533" lon="5.33321">
        <ele>1548</ele>
        <time>2022-06-10T12:12:08+02:00</time>
      </trkpt>
      <trkpt lat="44.83427" lon="5.33314">
        <ele>1573</ele>
        <time>2022-06-10T12:18:27+02:00</time>
      </trkpt>
      <trkpt lat="44.83313" lon="5.33276">
        <ele>1602</ele>
        <time>2022-06-10T12:25:39+02:00</time>
      </trkpt>
      <trkpt lat="44.83215" lon="5.3322">
        <ele>1619</ele>
        <time>2022-06-10T12:30:35+02:00</time>
      </trkpt>
      <trkpt lat="44.83175" lon="5.33202">
        <ele>1619</ele>
        <time>2022-06-10T12:31:23+02:00</time>
      </trkpt>
      <trkpt lat="44.83098" lon="5.33187">
        <ele>1628</ele>
        <time>2022-06-10T12:34:24+02:00</time>
      </trkpt>
      <trkpt lat="44.8305" lon="5.3316">
        <ele>1637</ele>
        <time>2022-06-10T12:36:55+02:00</time>
      </trkpt>
      <trkpt lat="44.82995" lon="5.33187">
        <ele>1637</ele>
        <time>2022-06-10T12:38:02+02:00</time>
      </trkpt>
      <trkpt lat="44.82942" lon="5.33418">
        <ele>1580</ele>
        <time>2022-06-10T12:41:20+02:00</time>
      </trkpt>
      <trkpt lat="44.83029" lon="5.33575">
        <ele>1552</ele>
        <time>2022-06-10T12:44:02+02:00</time>
      </trkpt>
      <trkpt lat="44.83087" lon="5.33744">
        <ele>1527</ele>
        <time>2022-06-10T12:46:34+02:00</time>
      </trkpt>
      <trkpt lat="44.83132" lon="5.33927">
        <ele>1499</ele>
        <time>2022-06-10T12:49:11+02:00</time>
      </trkpt>
      <trkpt lat="44.83191" lon="5.3411">
        <ele>1486</ele>
        <time>2022-06-10T12:51:54+02:00</time>
      </trkpt>
      <trkpt lat="44.83241" lon="5.34334">
        <ele>1461</ele>
        <time>2022-06-10T12:55:05+02:00</time>
      </trkpt>
      <trkpt lat="44.83223" lon="5.34502">
        <ele>1435</ele>
        <time>2022-06-10T12:57:23+02:00</time>
      </trkpt>
      <trkpt lat="44.83215" lon="5.34596">
        <ele>1432</ele>
        <time>2022-06-10T12:58:40+02:00</time>
      </trkpt>
      <trkpt lat="44.83244" lon="5.34798">
        <ele>1435</ele>
        <time>2022-06-10T13:01:58+02:00</time>
      </trkpt>
      <trkpt lat="44.8318" lon="5.34993">
        <ele>1410</ele>
        <time>2022-06-10T13:04:52+02:00</time>
      </trkpt>
      <trkpt lat="44.83122" lon="5.35157">
        <ele>1389</ele>
        <time>2022-06-10T13:07:21+02:00</time>
      </trkpt>
      <trkpt lat="44.83056" lon="5.35213">
        <ele>1370</ele>
        <time>2022-06-10T13:08:49+02:00</time>
      </trkpt>
      <trkpt lat="44.83024" lon="5.35299">
        <ele>1340</ele>
        <time>2022-06-10T13:10:08+02:00</time>
      </trkpt>
      <trkpt lat="44.83045" lon="5.35479">
        <ele>1359</ele>
        <time>2022-06-10T13:15:51+02:00</time>
      </trkpt>
      <trkpt lat="44.82976" lon="5.35643">
        <ele>1361</ele>
        <time>2022-06-10T13:18:47+02:00</time>
      </trkpt>
      <trkpt lat="44.82889" lon="5.35834">
        <ele>1330</ele>
        <time>2022-06-10T13:21:51+02:00</time>
      </trkpt>
      <trkpt lat="44.82793" lon="5.36024">
        <ele>1349</ele>
        <time>2022-06-10T13:28:16+02:00</time>
      </trkpt>
      <trkpt lat="44.82703" lon="5.36183">
        <ele>1369</ele>
        <time>2022-06-10T13:34:27+02:00</time>
      </trkpt>
      <trkpt lat="44.82682" lon="5.36317">
        <ele>1394</ele>
        <time>2022-06-10T13:40:36+02:00</time>
      </trkpt>
      <trkpt lat="44.82706" lon="5.3643">
        <ele>1407</ele>
        <time>2022-06-10T13:44:25+02:00</time>
      </trkpt>
      <trkpt lat="44.82634" lon="5.36519">
        <ele>1418</ele>
        <time>2022-06-10T13:48:08+02:00</time>
      </trkpt>
      <trkpt lat="44.82491" lon="5.36624">
        <ele>1442</ele>
        <time>2022-06-10T13:55:19+02:00</time>
      </trkpt>
      <trkpt lat="44.82401" lon="5.36706">
        <ele>1466</ele>
        <time>2022-06-10T14:01:29+02:00</time>
      </trkpt>
      <trkpt lat="44.82361" lon="5.36807">
        <ele>1495</ele>
        <time>2022-06-10T14:08:01+02:00</time>
      </trkpt>
      <trkpt lat="44.82454" lon="5.37039">
        <ele>1518</ele>
        <time>2022-06-10T14:15:34+02:00</time>
      </trkpt>
      <trkpt lat="44.82557" lon="5.37159">
        <ele>1519</ele>
        <time>2022-06-10T14:18:17+02:00</time>
      </trkpt>
      <trkpt lat="44.82666" lon="5.37301">
        <ele>1549</ele>
        <time>2022-06-10T14:26:15+02:00</time>
      </trkpt>
      <trkpt lat="44.82743" lon="5.3739">
        <ele>1545</ele>
        <time>2022-06-10T14:28:09+02:00</time>
      </trkpt>
      <trkpt lat="44.82838" lon="5.3742">
        <ele>1539</ele>
        <time>2022-06-10T14:30:01+02:00</time>
      </trkpt>
      <trkpt lat="44.8296" lon="5.3751">
        <ele>1544</ele>
        <time>2022-06-10T14:33:30+02:00</time>
      </trkpt>
      <trkpt lat="44.83034" lon="5.37622">
        <ele>1547</ele>
        <time>2022-06-10T14:36:05+02:00</time>
      </trkpt>
      <trkpt lat="44.83109" lon="5.37671">
        <ele>1539</ele>
        <time>2022-06-10T14:37:39+02:00</time>
      </trkpt>
      <trkpt lat="44.83287" lon="5.37731">
        <ele>1530</ele>
        <time>2022-06-10T14:41:09+02:00</time>
      </trkpt>
      <trkpt lat="44.83427" lon="5.37758">
        <ele>1529</ele>
        <time>2022-06-10T14:43:51+02:00</time>
      </trkpt>
      <trkpt lat="44.83557" lon="5.37791">
        <ele>1530</ele>
        <time>2022-06-10T14:46:32+02:00</time>
      </trkpt>
      <trkpt lat="44.83677" lon="5.37851">
        <ele>1529</ele>
        <time>2022-06-10T14:48:57+02:00</time>
      </trkpt>
      <trkpt lat="44.83767" lon="5.37881">
        <ele>1521</ele>
        <time>2022-06-10T14:50:43+02:00</time>
      </trkpt>
      <trkpt lat="44.83822" lon="5.37922">
        <ele>1520</ele>
        <time>2022-06-10T14:51:55+02:00</time>
      </trkpt>
      <trkpt lat="44.83849" lon="5.38031">
        <ele>1511</ele>
        <time>2022-06-10T14:53:28+02:00</time>
      </trkpt>
      <trkpt lat="44.83966" lon="5.38255">
        <ele>1475</ele>
        <time>2022-06-10T14:57:14+02:00</time>
      </trkpt>
      <trkpt lat="44.84107" lon="5.38508">
        <ele>1436</ele>
        <time>2022-06-10T15:01:36+02:00</time>
      </trkpt>
      <trkpt lat="44.8428" lon="5.38769">
        <ele>1421</ele>
        <time>2022-06-10T15:06:26+02:00</time>
      </trkpt>
      <trkpt lat="44.84203" lon="5.38758">
        <ele>1409</ele>
        <time>2022-06-10T15:07:55+02:00</time>
      </trkpt>
      <trkpt lat="44.84073" lon="5.38747">
        <ele>1386</ele>
        <time>2022-06-10T15:10:24+02:00</time>
      </trkpt>
      <trkpt lat="44.83856" lon="5.38751">
        <ele>1364</ele>
        <time>2022-06-10T15:14:33+02:00</time>
      </trkpt>
      <trkpt lat="44.83689" lon="5.38736">
        <ele>1360</ele>
        <time>2022-06-10T15:17:45+02:00</time>
      </trkpt>
      <trkpt lat="44.83466" lon="5.38777">
        <ele>1329</ele>
        <time>2022-06-10T15:22:02+02:00</time>
      </trkpt>
      <trkpt lat="44.83609" lon="5.38863">
        <ele>1327</ele>
        <time>2022-06-10T15:25:00+02:00</time>
      </trkpt>
      <trkpt lat="44.83673" lon="5.38893">
        <ele>1329</ele>
        <time>2022-06-10T15:26:37+02:00</time>
      </trkpt>
      <trkpt lat="44.83678" lon="5.3896">
        <ele>1319</ele>
        <time>2022-06-10T15:27:32+02:00</time>
      </trkpt>
      <trkpt lat="44.83638" lon="5.3899">
        <ele>1307</ele>
        <time>2022-06-10T15:28:24+02:00</time>
      </trkpt>
      <trkpt lat="44.83719" lon="5.39092">
        <ele>1296</ele>
        <time>2022-06-10T15:30:28+02:00</time>
      </trkpt>
      <trkpt lat="44.83809" lon="5.39111">
        <ele>1295</ele>
        <time>2022-06-10T15:32:12+02:00</time>
      </trkpt>
      <trkpt lat="44.83876" lon="5.39163">
        <ele>1274</ele>
        <time>2022-06-10T15:33:39+02:00</time>
      </trkpt>
      <trkpt lat="44.83947" lon="5.39287">
        <ele>1265</ele>
        <time>2022-06-10T15:35:48+02:00</time>
      </trkpt>
      <trkpt lat="44.83979" lon="5.3938">
        <ele>1262</ele>
        <time>2022-06-10T15:37:12+02:00</time>
      </trkpt>
      <trkpt lat="44.83902" lon="5.39526">
        <ele>1258</ele>
        <time>2022-06-10T15:39:40+02:00</time>
      </trkpt>
      <trkpt lat="44.83846" lon="5.39563">
        <ele>1242</ele>
        <time>2022-06-10T15:40:51+02:00</time>
      </trkpt>
      <trkpt lat="44.83804" lon="5.39653">
        <ele>1236</ele>
        <time>2022-06-10T15:42:19+02:00</time>
      </trkpt>
      <trkpt lat="44.83804" lon="5.39758">
        <ele>1246</ele>
        <time>2022-06-10T15:45:27+02:00</time>
      </trkpt>
    </trkseg>
  </trk>
</gpx>